Time;durP1;ratioP1;P1;durP2;ratioP2;P2;SDS_P1;SDS_P2;PMS_P1;PMS_P2;Temp;Humidity;BMP_temperature;BMP_pressure;BME280_temperature;BME280_humidity;BME280_pressure;Samples;Min_cycle;Max_cycle;Signal;HPM_P1;HPM_P2
2022/08/17 00:01:06;;;;;;;76.45;53.25;;;18.20;99.90;;;;;;5053811;28;20130;-27
2022/08/17 00:03:37;;;;;;;89.82;57.83;;;18.10;99.90;;;;;;5054006;28;20049;-27
2022/08/17 00:06:21;;;;;;;75.72;53.15;;;18.00;99.90;;;;;;5054466;28;20045;-27
2022/08/17 00:08:50;;;;;;;86.82;57.58;;;17.90;99.90;;;;;;5052884;28;20095;-27
2022/08/17 00:11:31;;;;;;;101.40;63.47;;;17.90;99.90;;;;;;5052600;28;20041;-27
2022/08/17 00:14:06;;;;;;;77.72;54.60;;;17.80;99.90;;;;;;5053053;28;20063;-27
2022/08/17 00:16:41;;;;;;;98.85;62.28;;;17.70;99.90;;;;;;5051940;28;20041;-27
2022/08/17 00:19:10;;;;;;;108.18;66.53;;;17.70;99.90;;;;;;5051462;28;20118;-27
2022/08/17 00:21:39;;;;;;;119.18;73.15;;;17.70;99.90;;;;;;5052911;28;20402;-27
2022/08/17 00:24:05;;;;;;;111.03;65.78;;;17.70;99.90;;;;;;5052818;28;20052;-27
2022/08/17 00:26:31;;;;;;;101.93;63.70;;;17.80;99.90;;;;;;5053578;28;20057;-27
2022/08/17 00:28:56;;;;;;;94.95;61.28;;;17.70;99.90;;;;;;5052979;28;20372;-27
2022/08/17 00:31:22;;;;;;;150.05;76.28;;;17.70;99.90;;;;;;5053165;28;20048;-27
2022/08/17 00:33:49;;;;;;;116.63;68.10;;;17.70;99.90;;;;;;5068472;28;20503;-26
2022/08/17 00:36:15;;;;;;;119.03;70.90;;;17.60;99.90;;;;;;5053807;28;20052;-27
2022/08/17 00:38:42;;;;;;;135.57;73.18;;;17.70;99.90;;;;;;5053186;28;20045;-27
2022/08/17 00:41:20;;;;;;;130.77;71.63;;;17.60;99.90;;;;;;5052657;28;20095;-26
2022/08/17 00:43:58;;;;;;;163.73;83.22;;;17.60;99.90;;;;;;5052735;28;20052;-27
2022/08/17 00:46:29;;;;;;;126.20;71.88;;;17.70;99.90;;;;;;5051889;28;20044;-27
2022/08/17 00:48:55;;;;;;;143.38;76.65;;;17.60;99.90;;;;;;5052501;28;20111;-27
2022/08/17 00:51:37;;;;;;;142.50;75.43;;;17.70;99.90;;;;;;5052606;28;20099;-27
2022/08/17 00:54:06;;;;;;;166.52;82.80;;;17.70;99.90;;;;;;5048997;28;20041;-27
2022/08/17 00:56:36;;;;;;;152.85;81.20;;;17.80;99.90;;;;;;5032585;28;20056;-27
2022/08/17 00:59:05;;;;;;;131.93;75.38;;;17.80;99.90;;;;;;5051145;28;20067;-27
2022/08/17 01:01:32;;;;;;;127.68;73.85;;;17.70;99.90;;;;;;5053211;28;20052;-27
2022/08/17 01:03:58;;;;;;;156.80;80.88;;;17.80;99.90;;;;;;5050827;28;20376;-27
2022/08/17 01:06:24;;;;;;;152.48;77.53;;;17.80;99.90;;;;;;5052596;28;20052;-27
2022/08/17 01:08:54;;;;;;;129.05;73.00;;;17.80;99.90;;;;;;5052542;28;20052;-28
2022/08/17 01:11:20;;;;;;;123.10;70.20;;;17.70;99.90;;;;;;5053837;28;20427;-27
2022/08/17 01:13:46;;;;;;;134.70;75.38;;;17.70;99.90;;;;;;5050606;28;20037;-27
2022/08/17 01:16:23;;;;;;;158.73;81.00;;;17.70;99.90;;;;;;5052476;28;20037;-27
2022/08/17 01:18:53;;;;;;;135.63;74.72;;;17.70;99.90;;;;;;5052882;28;20099;-27
2022/08/17 01:21:30;;;;;;;144.00;78.28;;;17.70;99.90;;;;;;5052180;28;20045;-27
2022/08/17 01:23:56;;;;;;;107.10;66.20;;;17.60;99.90;;;;;;5050491;28;20041;-27
2022/08/17 01:26:22;;;;;;;127.35;71.57;;;17.60;99.90;;;;;;5022905;28;20057;-27
2022/08/17 01:28:49;;;;;;;126.07;70.65;;;17.80;99.90;;;;;;5048819;28;20123;-26
2022/08/17 01:31:15;;;;;;;148.88;77.70;;;17.80;99.90;;;;;;5051649;28;20049;-26
2022/08/17 01:33:41;;;;;;;133.43;73.47;;;17.60;99.90;;;;;;5052179;28;20041;-27
2022/08/17 01:36:07;;;;;;;117.55;70.15;;;17.80;99.90;;;;;;5051310;28;20051;-27
2022/08/17 01:38:35;;;;;;;134.77;75.97;;;17.90;99.90;;;;;;5053233;28;20084;-26
2022/08/17 01:41:08;;;;;;;115.28;66.72;;;17.70;99.90;;;;;;5051753;28;20050;-26
2022/08/17 01:43:40;;;;;;;130.98;76.50;;;17.80;99.90;;;;;;5051002;28;20372;-27
2022/08/17 01:46:06;;;;;;;144.98;75.95;;;17.70;99.90;;;;;;5051153;28;21684;-27
2022/08/17 01:48:34;;;;;;;133.07;71.47;;;17.60;99.90;;;;;;5052443;28;20048;-26
2022/08/17 01:51:00;;;;;;;137.43;75.78;;;17.50;99.90;;;;;;5051451;28;20049;-27
2022/08/17 01:53:40;;;;;;;148.70;76.97;;;17.60;99.90;;;;;;5051024;28;20049;-26
2022/08/17 01:56:09;;;;;;;131.13;69.20;;;17.50;99.90;;;;;;5048717;28;20049;-27
2022/08/17 01:58:37;;;;;;;169.73;80.50;;;17.50;99.90;;;;;;5052345;28;20056;-27
2022/08/17 02:01:04;;;;;;;121.40;67.45;;;17.40;99.90;;;;;;5051632;28;20445;-27
2022/08/17 02:03:31;;;;;;;152.25;78.22;;;17.50;99.90;;;;;;5037576;28;20061;-26
2022/08/17 02:05:57;;;;;;;156.70;80.10;;;17.50;99.90;;;;;;5050189;28;20052;-27
2022/08/17 02:08:23;;;;;;;228.57;92.00;;;17.50;99.90;;;;;;5053017;28;20049;-26
2022/08/17 02:10:50;;;;;;;342.88;100.03;;;17.40;99.90;;;;;;5053002;28;20044;-26
2022/08/17 02:13:17;;;;;;;1955.88;169.70;;;17.30;99.90;;;;;;5055869;28;20482;-27
2022/08/17 02:15:43;;;;;;;1494.57;128.23;;;17.00;99.90;;;;;;5054486;28;20507;-27
2022/08/17 02:18:09;;;;;;;1209.95;109.75;;;16.60;99.90;;;;;;5040032;28;20131;-26
2022/08/17 02:20:37;;;;;;;1194.32;108.57;;;16.50;99.90;;;;;;5055436;28;20044;-26
2022/08/17 02:23:07;;;;;;;1063.30;70.85;;;16.20;99.90;;;;;;5071271;28;20045;-26
2022/08/17 02:25:34;;;;;;;1116.78;64.05;;;16.10;99.90;;;;;;5055404;28;20064;-26
2022/08/17 02:28:00;;;;;;;168.48;31.90;;;16.00;99.90;;;;;;5055368;28;20049;-26
2022/08/17 02:30:25;;;;;;;45.78;32.22;;;15.70;99.90;;;;;;5054256;28;20041;-26
2022/08/17 02:32:52;;;;;;;76.50;42.75;;;15.70;99.90;;;;;;5055243;28;20401;-26
2022/08/17 02:35:18;;;;;;;71.07;42.50;;;15.60;99.90;;;;;;5054144;28;20053;-26
2022/08/17 02:37:44;;;;;;;66.07;42.13;;;15.80;99.90;;;;;;5053738;28;20119;-26
2022/08/17 02:40:10;;;;;;;108.00;57.65;;;15.70;99.90;;;;;;5056099;28;20076;-26
2022/08/17 02:42:38;;;;;;;125.10;62.90;;;16.00;99.90;;;;;;5055578;28;20045;-26
2022/08/17 02:45:07;;;;;;;81.07;49.00;;;16.10;99.90;;;;;;5055939;28;20087;-26
2022/08/17 02:47:33;;;;;;;65.07;43.28;;;16.20;99.90;;;;;;5054339;28;20055;-27
2022/08/17 02:49:59;;;;;;;91.90;46.08;;;16.00;99.90;;;;;;5055473;28;20074;-26
2022/08/17 02:52:26;;;;;;;208.18;37.78;;;15.70;99.90;;;;;;5053651;28;20045;-27
2022/08/17 02:54:52;;;;;;;55.60;37.72;;;15.60;99.90;;;;;;5055527;28;20482;-26
2022/08/17 02:57:18;;;;;;;243.15;50.58;;;15.30;99.90;;;;;;5054751;28;20059;-26
2022/08/17 02:59:44;;;;;;;383.17;71.65;;;15.40;99.90;;;;;;5054510;28;20044;-27
2022/08/17 03:02:10;;;;;;;148.93;56.42;;;15.40;99.90;;;;;;5054702;28;20123;-27
2022/08/17 03:04:36;;;;;;;667.05;88.85;;;15.30;99.90;;;;;;5054063;28;20178;-26
2022/08/17 03:07:03;;;;;;;681.47;81.47;;;15.50;99.90;;;;;;5054885;28;20461;-26
2022/08/17 03:09:30;;;;;;;1477.05;120.43;;;15.40;99.90;;;;;;5054437;28;20041;-26
2022/08/17 03:12:08;;;;;;;1661.60;114.97;;;15.40;99.90;;;;;;5055719;28;20496;-26
2022/08/17 03:14:36;;;;;;;1312.60;95.47;;;15.20;99.90;;;;;;5052557;28;20073;-26
2022/08/17 03:17:02;;;;;;;512.67;72.28;;;15.10;99.90;;;;;;5053582;28;20132;-27
2022/08/17 03:19:28;;;;;;;667.90;86.47;;;15.00;99.90;;;;;;5036767;28;20598;-26
2022/08/17 03:21:54;;;;;;;86.28;48.83;;;15.10;99.90;;;;;;5054553;28;20045;-26
2022/08/17 03:24:19;;;;;;;121.45;59.40;;;15.20;99.90;;;;;;5052066;28;20045;-26
2022/08/17 03:26:45;;;;;;;285.27;79.00;;;15.40;99.90;;;;;;5053609;28;20045;-27
2022/08/17 03:29:17;;;;;;;285.48;89.72;;;15.50;99.90;;;;;;5054054;28;20055;-26
2022/08/17 03:31:47;;;;;;;451.55;102.10;;;15.80;99.90;;;;;;5053159;28;20041;-26
2022/08/17 03:34:14;;;;;;;586.47;116.70;;;16.00;99.90;;;;;;5052761;28;20040;-27
2022/08/17 03:36:40;;;;;;;374.95;100.35;;;16.40;99.90;;;;;;5055244;28;20052;-27
2022/08/17 03:39:05;;;;;;;424.40;98.85;;;16.70;99.90;;;;;;5053787;28;20495;-27
2022/08/17 03:41:32;;;;;;;653.92;128.10;;;16.80;99.90;;;;;;5054935;28;20113;-27
2022/08/17 03:43:58;;;;;;;518.80;114.75;;;17.00;99.90;;;;;;5053819;28;20080;-27
2022/08/17 03:57:48;;;;;;;391.33;100.07;;;17.50;99.90;;;;;;5049105;28;20053;-27
2022/08/17 04:00:14;;;;;;;347.92;86.50;;;17.20;99.90;;;;;;5055112;28;20045;-27
2022/08/17 04:02:41;;;;;;;281.33;76.05;;;17.40;99.90;;;;;;5054062;28;20041;-26
2022/08/17 04:05:08;;;;;;;490.35;95.53;;;17.50;99.90;;;;;;5052722;28;20089;-26
2022/08/17 04:07:34;;;;;;;240.25;70.95;;;17.40;99.90;;;;;;5052095;28;20487;-26
2022/08/17 04:10:00;;;;;;;315.48;66.97;;;17.40;99.90;;;;;;5054979;28;20063;-26
2022/08/17 04:12:30;;;;;;;783.60;123.63;;;17.10;99.90;;;;;;5053604;28;20491;-26
2022/08/17 04:14:56;;;;;;;192.75;62.97;;;17.10;99.90;;;;;;5054357;28;20095;-27
2022/08/17 04:17:25;;;;;;;733.53;121.68;;;17.00;99.90;;;;;;5051874;28;20057;-26
2022/08/17 04:19:51;;;;;;;633.10;106.25;;;16.90;99.90;;;;;;5053461;28;20041;-26
2022/08/17 04:22:17;;;;;;;735.17;121.03;;;17.10;99.90;;;;;;5053731;28;20068;-26
2022/08/17 04:24:43;;;;;;;251.93;69.28;;;17.00;99.90;;;;;;5052901;28;20068;-26
2022/08/17 04:27:09;;;;;;;188.23;57.58;;;16.80;99.90;;;;;;5051752;28;20045;-27
2022/08/17 04:29:34;;;;;;;212.40;63.22;;;16.70;99.90;;;;;;5052379;28;20482;-26
2022/08/17 04:32:01;;;;;;;195.90;60.20;;;17.00;99.90;;;;;;5054618;28;20052;-26
2022/08/17 04:34:27;;;;;;;230.20;65.13;;;16.80;99.90;;;;;;5052657;28;20082;-26
2022/08/17 04:36:53;;;;;;;156.65;59.47;;;16.70;99.90;;;;;;5053289;28;20119;-26
2022/08/17 04:39:18;;;;;;;149.45;58.53;;;16.90;99.90;;;;;;5053028;28;20044;-26
2022/08/17 04:44:28;;;;;;;135.63;59.33;;;17.00;99.90;;;;;;5054381;28;20103;-26
2022/08/17 04:46:54;;;;;;;166.98;63.08;;;17.00;99.90;;;;;;5053269;28;20495;-27
2022/08/17 04:49:19;;;;;;;144.43;61.90;;;17.10;99.90;;;;;;5051809;28;20041;-26
2022/08/17 04:51:46;;;;;;;262.23;79.00;;;16.80;99.90;;;;;;5052406;28;20045;-27
2022/08/17 04:54:16;;;;;;;130.95;60.45;;;16.90;99.90;;;;;;5053383;28;20049;-26
2022/08/17 04:56:43;;;;;;;104.55;54.33;;;17.10;99.90;;;;;;5053416;28;20068;-26
2022/08/17 04:59:16;;;;;;;214.32;73.82;;;17.00;99.90;;;;;;5051162;28;20187;-27
2022/08/17 05:01:45;;;;;;;104.78;55.30;;;17.10;99.90;;;;;;5052611;28;20041;-26
2022/08/17 05:04:16;;;;;;;212.13;79.75;;;17.20;99.90;;;;;;5052446;28;20053;-26
2022/08/17 05:06:42;;;;;;;100.50;56.05;;;17.50;99.90;;;;;;5052812;28;20056;-27
2022/08/17 05:09:08;;;;;;;120.72;59.97;;;17.20;99.90;;;;;;5052742;28;20045;-26
2022/08/17 05:11:35;;;;;;;113.60;55.72;;;17.60;99.90;;;;;;5052415;28;20090;-26
2022/08/17 05:14:00;;;;;;;174.93;67.13;;;17.30;99.90;;;;;;5050824;28;20040;-26
2022/08/17 05:16:27;;;;;;;110.70;59.25;;;17.60;99.90;;;;;;5053308;28;20045;-26
2022/08/17 05:18:54;;;;;;;104.95;56.83;;;17.70;99.90;;;;;;5053417;28;20475;-26
2022/08/17 05:21:21;;;;;;;77.80;50.08;;;17.70;99.90;;;;;;5042438;28;20049;-26
2022/08/17 05:23:47;;;;;;;134.07;57.35;;;17.90;99.90;;;;;;5050698;28;20078;-27
2022/08/17 05:26:16;;;;;;;164.13;65.30;;;17.80;99.90;;;;;;5050184;28;20045;-27
2022/08/17 05:28:42;;;;;;;122.90;57.40;;;17.60;99.90;;;;;;5051541;28;20094;-26
2022/08/17 05:31:08;;;;;;;111.82;57.72;;;17.50;99.90;;;;;;5052192;28;20073;-26
2022/08/17 05:33:36;;;;;;;115.63;59.17;;;17.80;99.90;;;;;;5053315;28;20084;-26
2022/08/17 05:36:04;;;;;;;129.98;61.42;;;17.60;99.90;;;;;;5034817;28;20040;-26
2022/08/17 05:38:30;;;;;;;112.05;58.20;;;18.00;99.90;;;;;;5053281;28;20107;-26
2022/08/17 05:40:57;;;;;;;100.93;56.63;;;17.70;99.90;;;;;;5050514;28;20098;-27
2022/08/17 05:43:33;;;;;;;110.90;57.92;;;18.00;99.90;;;;;;5053099;28;20120;-27
2022/08/17 05:46:17;;;;;;;106.07;57.17;;;17.80;99.90;;;;;;5053480;28;20053;-27
2022/08/17 05:48:53;;;;;;;117.95;63.10;;;18.20;99.90;;;;;;5055862;28;20505;-27
2022/08/17 05:52:04;;;;;;;129.90;69.10;;;18.10;99.90;;;;;;5056980;28;20049;-27
2022/08/17 05:54:59;;;;;;;104.65;59.03;;;18.00;99.90;;;;;;5033691;28;20057;-27
2022/08/17 05:57:31;;;;;;;118.03;64.03;;;18.00;99.90;;;;;;5048089;28;20087;-27
2022/08/17 06:00:11;;;;;;;126.22;66.28;;;18.40;99.90;;;;;;5055197;28;20036;-27
2022/08/17 06:02:46;;;;;;;95.93;57.55;;;18.50;99.90;;;;;;5054995;28;20045;-27
2022/08/17 06:05:23;;;;;;;101.25;57.92;;;18.20;99.90;;;;;;5037534;28;20060;-27
2022/08/17 06:07:54;;;;;;;99.20;57.97;;;18.40;99.90;;;;;;5045408;28;20411;-27
2022/08/17 06:10:41;;;;;;;102.68;57.05;;;18.40;99.90;;;;;;5056432;28;20045;-27
2022/08/17 06:13:35;;;;;;;85.28;52.45;;;18.30;99.90;;;;;;5054847;28;20055;-27
2022/08/17 06:16:08;;;;;;;94.47;54.85;;;18.40;99.90;;;;;;5051762;28;20049;-27
2022/08/17 06:18:49;;;;;;;97.93;58.38;;;18.50;99.90;;;;;;5036847;28;20053;-27
2022/08/17 06:21:17;;;;;;;114.55;61.20;;;18.30;99.90;;;;;;5052338;28;20045;-27
2022/08/17 06:24:12;;;;;;;103.15;59.42;;;18.60;99.90;;;;;;5050719;28;20041;-27
2022/08/17 06:26:43;;;;;;;113.35;63.33;;;18.60;99.90;;;;;;5035935;28;20050;-25
2022/08/17 06:29:23;;;;;;;141.63;66.15;;;18.30;99.90;;;;;;5038789;28;20505;-23
2022/08/17 06:31:49;;;;;;;139.88;70.30;;;18.50;99.90;;;;;;5053346;28;20059;-24
2022/08/17 06:34:18;;;;;;;138.68;68.95;;;18.40;99.90;;;;;;5054812;28;20553;-24
2022/08/17 06:37:01;;;;;;;138.48;69.55;;;18.30;99.90;;;;;;5053559;28;20048;-23
2022/08/17 06:39:46;;;;;;;123.50;65.40;;;18.60;99.90;;;;;;5054798;28;20514;-23
2022/08/17 06:42:28;;;;;;;128.90;65.97;;;18.90;99.90;;;;;;5056125;28;20479;-23
2022/08/17 06:45:13;;;;;;;139.73;70.78;;;19.00;99.90;;;;;;5053906;28;20487;-24
2022/08/17 06:47:50;;;;;;;119.50;66.45;;;18.60;99.90;;;;;;5048548;28;20037;-24
2022/08/17 06:50:40;;;;;;;123.50;68.22;;;18.70;99.90;;;;;;5055997;28;20057;-25
2022/08/17 06:53:21;;;;;;;110.00;63.95;;;19.20;99.90;;;;;;5054430;28;20482;-25
2022/08/17 06:56:02;;;;;;;97.05;61.00;;;19.60;99.90;;;;;;5053084;28;20372;-26
2022/08/17 06:58:32;;;;;;;109.00;65.28;;;19.40;99.90;;;;;;5053443;28;20102;-25
2022/08/17 07:01:12;;;;;;;94.38;59.13;;;19.50;99.90;;;;;;5053757;28;20048;-26
2022/08/17 07:04:16;;;;;;;102.38;61.53;;;19.30;99.90;;;;;;5055028;28;20399;-26
2022/08/17 07:06:53;;;;;;;89.13;57.85;;;19.60;99.90;;;;;;5055466;28;20132;-26
2022/08/17 07:09:34;;;;;;;83.15;57.65;;;20.00;99.90;;;;;;5054557;28;20051;-26
2022/08/17 07:12:14;;;;;;;103.25;61.28;;;19.80;99.90;;;;;;5070257;28;20059;-26
2022/08/17 07:15:07;;;;;;;89.85;58.85;;;19.90;99.90;;;;;;5054807;28;20390;-26
2022/08/17 07:17:33;;;;;;;91.47;56.85;;;19.90;99.90;;;;;;5053019;28;20171;-26
2022/08/17 07:20:13;;;;;;;101.88;59.95;;;19.80;99.90;;;;;;5052018;28;20049;-26
2022/08/17 07:23:02;;;;;;;88.20;58.10;;;20.00;99.90;;;;;;5041304;28;20053;-26
2022/08/17 07:25:30;;;;;;;79.32;53.53;;;19.90;99.90;;;;;;5053553;28;20497;-23
2022/08/17 07:28:01;;;;;;;110.45;66.20;;;19.70;99.90;;;;;;5053620;28;20045;-24
2022/08/17 07:30:40;;;;;;;107.22;63.60;;;19.60;99.90;;;;;;5043417;28;20037;-24
2022/08/17 07:33:08;;;;;;;103.57;65.60;;;19.90;99.90;;;;;;5046344;28;20037;-24
2022/08/17 07:35:38;;;;;;;103.65;67.50;;;20.20;99.90;;;;;;5056733;28;20114;-23
2022/08/17 07:38:26;;;;;;;104.13;64.45;;;20.20;99.90;;;;;;5053944;28;20045;-24
2022/08/17 07:41:10;;;;;;;83.15;59.55;;;20.60;99.90;;;;;;5055039;28;20445;-25
2022/08/17 07:43:47;;;;;;;73.65;56.30;;;20.70;99.90;;;;;;5055534;28;20118;-24
2022/08/17 07:49:08;;;;;;;81.65;58.40;;;21.10;99.90;;;;;;5053836;28;20471;-25
2022/08/17 07:51:42;;;;;;;75.93;57.08;;;21.20;99.90;;;;;;5054691;28;20051;-24
2022/08/17 07:54:14;;;;;;;71.40;53.25;;;21.00;99.90;;;;;;5054733;28;20041;-24
2022/08/17 07:56:47;;;;;;;67.18;53.63;;;21.00;99.90;;;;;;5054655;28;20052;-25
2022/08/17 07:59:17;;;;;;;;;;;21.30;99.90;;;;;;5052820;28;20509;-25
2022/08/17 08:02:18;;;;;;;69.32;52.40;;;21.30;99.90;;;;;;5054130;28;20019;-25
2022/08/17 08:05:05;;;;;;;65.43;51.70;;;21.20;99.90;;;;;;5049519;28;20055;-25
2022/08/17 08:07:36;;;;;;;73.70;53.40;;;21.30;99.90;;;;;;5054523;28;20530;-25
2022/08/17 08:10:13;;;;;;;63.47;48.20;;;21.30;99.90;;;;;;5052591;28;20059;-25
2022/08/17 08:12:48;;;;;;;57.00;45.75;;;21.50;94.40;;;;;;5053605;28;20049;-25
2022/08/17 08:15:21;;;;;;;58.20;47.00;;;21.60;73.80;;;;;;5035001;28;20056;-25
2022/08/17 08:18:03;;;;;;;58.63;47.80;;;21.50;26.00;;;;;;5034371;28;20041;-25
2022/08/17 08:20:48;;;;;;;61.05;48.58;;;21.40;1.00;;;;;;5034304;28;20160;-25
2022/08/17 08:23:22;;;;;;;60.40;47.50;;;21.60;1.00;;;;;;5051996;28;20136;-25
2022/08/17 08:26:12;;;;;;;54.05;44.13;;;21.60;1.00;;;;;;5036574;28;20136;-25
2022/08/17 08:28:59;;;;;;;56.10;45.85;;;21.40;1.00;;;;;;5054153;28;20075;-25
2022/08/17 08:31:32;;;;;;;53.10;44.50;;;21.30;1.00;;;;;;5053619;28;20045;-28
2022/08/17 08:34:32;;;;;;;53.15;42.58;;;21.30;1.00;;;;;;5051944;28;20475;-25
2022/08/17 08:37:05;;;;;;;61.67;45.35;;;21.20;1.00;;;;;;5034082;28;20119;-25
2022/08/17 08:39:42;;;;;;;;;;;21.10;1.00;;;;;;5041941;28;20045;-26
2022/08/17 08:42:19;;;;;;;52.67;42.95;;;21.10;1.00;;;;;;5052464;28;20039;-25
2022/08/17 08:44:59;;;;;;;49.97;43.83;;;21.10;1.00;;;;;;5033885;28;20045;-25
2022/08/17 08:47:27;;;;;;;52.75;43.78;;;21.30;1.00;;;;;;5037994;28;20041;-25
2022/08/17 08:50:21;;;;;;;57.53;46.40;;;21.20;1.00;;;;;;5051065;28;20052;-25
2022/08/17 08:53:20;;;;;;;57.72;48.42;;;21.20;1.00;;;;;;5050500;28;20103;-25
2022/08/17 08:55:59;;;;;;;59.25;49.72;;;21.30;1.00;;;;;;5052972;28;20494;-25
2022/08/17 08:58:49;;;;;;;49.22;44.00;;;21.00;1.00;;;;;;5043772;28;20056;-25
2022/08/17 09:01:46;;;;;;;54.17;46.88;;;21.00;1.00;;;;;;5052996;28;20506;-26
2022/08/17 09:04:29;;;;;;;50.58;45.20;;;20.90;1.00;;;;;;5048527;28;20045;-25
2022/08/17 09:07:13;;;;;;;53.85;45.95;;;20.70;1.00;;;;;;5032532;28;20171;-26
2022/08/17 09:09:48;;;;;;;52.67;46.78;;;20.90;1.00;;;;;;5052693;28;20497;-25
2022/08/17 09:12:26;;;;;;;55.83;46.45;;;20.70;1.00;;;;;;5053423;28;20106;-24
2022/08/17 09:15:09;;;;;;;54.20;47.20;;;20.60;1.00;;;;;;5051054;28;20120;-23
2022/08/17 09:18:07;;;;;;;57.80;50.58;;;20.50;1.00;;;;;;5052821;28;20487;-23
2022/08/17 09:20:43;;;;;;;57.15;50.90;;;20.60;1.00;;;;;;5030306;28;20057;-23
2022/08/17 09:23:11;;;;;;;63.40;53.08;;;20.60;1.00;;;;;;5058424;28;20383;-23
2022/08/17 09:26:01;;;;;;;61.08;51.53;;;20.90;1.00;;;;;;5056056;28;20441;-24
2022/08/17 09:28:35;;;;;;;57.05;50.15;;;21.20;99.90;;;;;;5057893;28;20124;-24
2022/08/17 09:31:17;;;;;;;45.45;40.55;;;22.10;99.90;;;;;;5040176;28;20064;-24
2022/08/17 09:33:47;;;;;;;41.90;37.55;;;23.10;99.90;;;;;;5057502;28;20053;-24
2022/08/17 09:36:30;;;;;;;38.67;34.88;;;24.10;1.00;;;;;;5055240;28;20079;-24
2022/08/17 09:39:06;;;;;;;34.97;31.55;;;24.90;99.90;;;;;;5057300;28;20076;-25
2022/08/17 09:41:55;;;;;;;32.72;29.48;;;25.50;13.80;;;;;;5057856;28;20424;-25
2022/08/17 09:44:46;;;;;;;30.33;27.17;;;25.80;99.90;;;;;;5056171;28;20406;-25
2022/08/17 09:47:21;;;;;;;28.23;25.23;;;25.70;99.90;;;;;;5056808;28;20049;-25
2022/08/17 09:50:00;;;;;;;27.73;25.08;;;25.50;99.90;;;;;;5057686;28;20079;-25
2022/08/17 09:52:28;;;;;;;28.73;26.00;;;25.40;1.00;;;;;;5057097;28;20045;-25
2022/08/17 09:54:57;;;;;;;26.48;23.63;;;25.10;99.90;;;;;;5054049;28;20099;-24
2022/08/17 09:57:28;;;;;;;25.25;22.63;;;24.90;99.90;;;;;;5055732;28;20051;-24
2022/08/17 10:00:26;;;;;;;25.77;23.17;;;24.40;99.90;;;;;;5056965;28;20084;-24
2022/08/17 10:03:08;;;;;;;33.65;27.13;;;23.90;99.90;;;;;;5056883;28;20049;-24
2022/08/17 10:05:45;;;;;;;30.38;27.42;;;23.60;99.90;;;;;;5052095;28;20057;-24
2022/08/17 10:08:24;;;;;;;32.67;29.30;;;23.40;1.00;;;;;;5070424;28;20411;-24
2022/08/17 10:12:14;;;;;;;33.28;29.85;;;23.40;80.70;;;;;;5056752;28;20048;-24
2022/08/17 10:14:52;;;;;;;32.70;29.42;;;23.30;1.00;;;;;;5037370;28;20041;-24
2022/08/17 10:17:26;;;;;;;29.08;26.17;;;23.20;53.10;;;;;;5025268;28;20096;-25
2022/08/17 10:20:05;;;;;;;31.40;28.08;;;23.10;1.00;;;;;;5054473;28;20055;-24
2022/08/17 10:28:14;;;;;;;30.65;27.40;;;22.70;99.90;;;;;;5056953;28;20056;-24
2022/08/17 10:30:49;;;;;;;34.53;29.48;;;22.60;99.90;;;;;;5056374;28;20487;-24
2022/08/17 10:33:20;;;;;;;30.40;27.20;;;22.60;1.00;;;;;;5055598;28;20045;-24
2022/08/17 10:36:36;;;;;;;27.63;24.50;;;22.70;1.00;;;;;;5055738;28;20472;-25
2022/08/17 10:39:35;;;;;;;27.20;24.30;;;22.90;99.90;;;;;;5034504;28;20107;-24
2022/08/17 10:42:19;;;;;;;25.55;22.73;;;23.10;99.90;;;;;;5017366;28;20118;-24
2022/08/17 10:44:55;;;;;;;30.27;24.42;;;23.20;99.90;;;;;;5050877;28;20053;-24
2022/08/17 10:47:25;;;;;;;27.27;23.00;;;23.40;99.90;;;;;;5055152;28;20432;-25
2022/08/17 10:49:54;;;;;;;23.80;21.15;;;23.40;99.90;;;;;;5053970;28;20094;-26
2022/08/17 10:52:26;;;;;;;25.17;22.48;;;23.40;1.00;;;;;;5044886;28;20048;-25
2022/08/17 10:54:57;;;;;;;23.37;19.87;;;23.40;1.00;;;;;;5056258;28;20380;-24
2022/08/17 10:57:30;;;;;;;21.38;17.63;;;23.40;1.00;;;;;;5054919;28;20044;-24
2022/08/17 10:59:58;;;;;;;22.63;19.45;;;23.50;1.00;;;;;;5052872;28;20081;-25
2022/08/17 11:02:48;;;;;;;22.65;20.38;;;23.50;1.00;;;;;;5045436;28;20499;-25
2022/08/17 11:05:21;;;;;;;22.65;19.10;;;23.60;99.90;;;;;;5042581;28;20049;-25
2022/08/17 11:08:00;;;;;;;19.50;16.48;;;23.70;99.90;;;;;;5055547;28;20458;-24
2022/08/17 11:10:31;;;;;;;20.70;18.55;;;23.70;99.90;;;;;;5055347;28;20422;-25
2022/08/17 11:13:26;;;;;;;21.88;19.65;;;23.70;99.90;;;;;;5055290;28;20051;-25
2022/08/17 11:16:01;;;;;;;24.75;20.52;;;23.80;99.90;;;;;;5055551;28;20509;-25
2022/08/17 11:18:49;;;;;;;22.77;20.60;;;23.70;1.00;;;;;;5055536;28;20056;-25
2022/08/17 11:21:19;;;;;;;24.58;21.30;;;23.70;99.90;;;;;;5054137;28;20051;-25
2022/08/17 11:23:54;;;;;;;23.85;21.55;;;23.70;1.00;;;;;;5054294;28;20394;-25
2022/08/17 11:26:30;;;;;;;28.70;21.00;;;23.70;99.90;;;;;;5055312;28;20080;-25
2022/08/17 11:29:09;;;;;;;22.20;19.10;;;23.80;1.00;;;;;;5055347;28;20128;-25
2022/08/17 11:31:45;;;;;;;21.23;18.63;;;23.70;99.90;;;;;;5053497;28;20194;-25
2022/08/17 11:34:25;;;;;;;22.55;19.73;;;23.90;1.00;;;;;;5053754;28;20546;-25
2022/08/17 11:36:59;;;;;;;25.67;21.73;;;23.90;99.90;;;;;;5055457;28;20053;-25
2022/08/17 11:39:50;;;;;;;23.25;18.70;;;24.00;99.90;;;;;;5055417;28;20119;-25
2022/08/17 11:42:25;;;;;;;20.52;17.05;;;24.10;99.90;;;;;;5054250;28;20450;-25
2022/08/17 11:45:33;;;;;;;22.90;19.88;;;24.30;99.90;;;;;;5053505;28;20522;-25
2022/08/17 11:51:32;;;;;;;20.88;18.58;;;24.80;67.20;;;;;;5054890;28;20053;-25
2022/08/17 11:54:35;;;;;;;20.20;18.20;;;24.90;99.90;;;;;;5053695;28;20041;-25
2022/08/17 11:57:26;;;;;;;18.77;16.83;;;24.80;29.50;;;;;;5053761;28;20150;-25
2022/08/17 12:00:05;;;;;;;18.65;16.30;;;24.90;1.00;;;;;;5054653;28;20091;-26
2022/08/17 12:02:34;;;;;;;18.63;16.60;;;25.00;1.00;;;;;;5054953;28;20056;-26
2022/08/17 12:05:15;;;;;;;18.80;16.02;;;25.30;1.00;;;;;;5053478;28;20114;-26
2022/08/17 12:07:45;;;;;;;21.48;15.75;;;25.30;1.00;;;;;;5054528;28;20051;-26
2022/08/17 12:10:15;;;;;;;16.98;15.15;;;25.10;1.00;;;;;;5054443;28;20049;-26
2022/08/17 12:12:42;;;;;;;17.48;15.35;;;24.90;1.00;;;;;;5054713;28;20052;-26
2022/08/17 12:15:16;;;;;;;17.30;15.50;;;24.70;1.00;;;;;;5052373;28;20582;-26
2022/08/17 12:17:51;;;;;;;16.20;14.25;;;24.80;1.00;;;;;;5055171;28;20044;-26
2022/08/17 12:20:27;;;;;;;19.88;14.57;;;24.90;1.00;;;;;;5054382;28;20091;-26
2022/08/17 12:23:05;;;;;;;16.55;14.90;;;24.90;1.00;;;;;;5054247;28;20045;-26
2022/08/17 12:25:55;;;;;;;19.73;14.75;;;24.80;1.00;;;;;;5053140;28;20037;-26
2022/08/17 12:28:34;;;;;;;16.48;14.40;;;24.70;1.00;;;;;;5053508;28;20052;-26
2022/08/17 12:31:03;;;;;;;17.02;15.23;;;24.50;1.00;;;;;;5053184;28;20057;-26
2022/08/17 12:33:29;;;;;;;17.30;15.02;;;24.30;1.00;;;;;;5054022;28;20045;-26
2022/08/17 12:36:04;;;;;;;15.25;12.50;;;24.40;28.30;;;;;;5052862;28;20044;-26
2022/08/17 12:38:35;;;;;;;13.80;12.32;;;24.40;1.00;;;;;;5053100;28;20049;-26
2022/08/17 12:44:00;;;;;;;11.35;10.15;;;24.50;1.00;;;;;;5054394;28;20053;-26
2022/08/17 12:46:28;;;;;;;12.63;10.80;;;24.60;1.00;;;;;;5052749;28;20558;-26
2022/08/17 12:49:14;;;;;;;14.85;12.88;;;24.70;1.00;;;;;;5052649;28;20052;-26
2022/08/17 12:51:44;;;;;;;14.20;12.25;;;24.50;1.00;;;;;;5053512;28;20501;-26
2022/08/17 12:54:26;;;;;;;14.35;11.88;;;24.30;1.00;;;;;;5054274;28;20045;-26
2022/08/17 12:56:51;;;;;;;15.70;11.23;;;24.30;1.00;;;;;;5052410;28;20055;-26
2022/08/17 12:59:20;;;;;;;13.57;9.55;;;24.30;1.00;;;;;;5052453;28;20140;-26
2022/08/17 13:01:46;;;;;;;11.40;8.40;;;24.30;1.00;;;;;;5052492;28;20048;-26
2022/08/17 13:04:14;;;;;;;14.60;9.68;;;24.30;1.00;;;;;;5052127;28;20048;-26
2022/08/17 13:06:49;;;;;;;10.40;9.05;;;24.40;1.00;;;;;;5051499;28;20045;-26
2022/08/17 13:09:27;;;;;;;12.73;9.52;;;24.30;1.00;;;;;;5052898;28;20115;-26
2022/08/17 13:11:58;;;;;;;12.93;8.55;;;24.10;99.90;;;;;;5054164;28;20053;-26
2022/08/17 13:14:24;;;;;;;9.50;8.30;;;24.00;1.00;;;;;;5054164;28;20033;-26
2022/08/17 13:17:01;;;;;;;9.95;8.20;;;24.00;1.00;;;;;;5052356;28;20049;-26
2022/08/17 13:19:31;;;;;;;11.05;8.25;;;24.10;1.00;;;;;;5053829;28;20047;-26
2022/08/17 13:22:00;;;;;;;10.55;9.30;;;24.10;1.00;;;;;;5053333;28;20128;-26
2022/08/17 13:24:30;;;;;;;9.80;8.80;;;24.00;1.00;;;;;;5035556;28;20041;-26
2022/08/17 13:27:01;;;;;;;14.07;10.18;;;24.00;1.00;;;;;;5052469;28;20089;-26
2022/08/17 13:29:27;;;;;;;12.55;10.55;;;24.00;1.00;;;;;;5052293;28;20125;-26